This is the latest recevied weather packets stored in our database for station/object N6SPP. If no packets are shown the sender has not sent any weather packets the latest 10 day(s).
| Time | Temp. | Humidity | Pressure | Rain* | Wind** | Luminosity | Snow |
|---|---|---|---|---|---|---|---|
| 1778107962 | 25° C | 52% | 1020 hPa | 0 mm | - | 539 W/m² | - |
| 1778107653 | 24.44° C | 53% | 1020.2 hPa | 0 mm | - | 552 W/m² | - |
| 1778107351 | 24.44° C | 54% | 1020.3 hPa | 0 mm | - | 565 W/m² | - |
| 1778107047 | 24.44° C | 53% | 1020.3 hPa | 0 mm | - | 340 W/m² | - |
| 1778106742 | 25° C | 53% | 1020.2 hPa | 0 mm | - | 584 W/m² | - |
| 1778106440 | 24.44° C | 53% | 1020.4 hPa | 0 mm | - | 596 W/m² | - |
| 1778106135 | 23.89° C | 54% | 1020.5 hPa | 0 mm | - | 606 W/m² | - |
| 1778105834 | 24.44° C | 54% | 1020.5 hPa | 0 mm | - | 623 W/m² | - |
| 1778105532 | 23.89° C | 54% | 1020.6 hPa | 0 mm | - | 631 W/m² | - |
| 1778105228 | 24.44° C | 54% | 1020.7 hPa | 0 mm | - | 646 W/m² | - |
| 1778104923 | 24.44° C | 53% | 1020.7 hPa | 0 mm | - | 593 W/m² | - |
| 1778104620 | 23.89° C | 54% | 1020.9 hPa | 0 mm | - | 633 W/m² | - |
| 1778104315 | 23.89° C | 55% | 1020.8 hPa | 0 mm | - | 675 W/m² | - |
| 1778104012 | 23.89° C | 56% | 1020.9 hPa | 0 mm | - | 717 W/m² | - |
| 1778103710 | 24.44° C | 53% | 1021 hPa | 0 mm | - | 691 W/m² | - |
| 1778103408 | 23.89° C | 55% | 1021 hPa | 0 mm | - | 697 W/m² | - |
| 1778103105 | 24.44° C | 53% | 1021 hPa | 0 mm | - | 707 W/m² | - |
| 1778102802 | 24.44° C | 54% | 1021.1 hPa | 0 mm | - | 726 W/m² | - |
| 1778102497 | 25° C | 52% | 1021 hPa | 0 mm | - | 727 W/m² | - |
| 1778102193 | 23.89° C | 58% | 1021 hPa | 0 mm | - | 729 W/m² | - |
| 1778101890 | 24.44° C | 53% | 1021.3 hPa | 0 mm | - | 732 W/m² | - |
| 1778101587 | 23.89° C | 54% | 1021.2 hPa | 0 mm | - | 740 W/m² | - |
| 1778101283 | 23.33° C | 54% | 1021.3 hPa | 0 mm | - | 746 W/m² | - |
| 1778100980 | 23.33° C | 54% | 1021.1 hPa | 0 mm | - | 752 W/m² | - |
| 1778100675 | 23.89° C | 54% | 1021.4 hPa | 0 mm | - | 760 W/m² | - |
* Rain latest hour (hover to see other rain measurements)
** Current wind speed in m/s (hover to see current wind gust speed)